Time;durP1;ratioP1;P1;durP2;ratioP2;P2;SDS_P1;SDS_P2;PMS_P1;PMS_P2;Temp;Humidity;BMP_temperature;BMP_pressure;BME280_temperature;BME280_humidity;BME280_pressure;Samples;Min_cycle;Max_cycle;Signal;HPM_P1;HPM_P2
2021/12/22 00:01:51;;;;;;;23.05;13.75;;;-0.50;99.90;;;;;;5093600;28;20048;-70
2021/12/22 00:04:20;;;;;;;23.42;13.85;;;-0.50;99.90;;;;;;5092323;28;20089;-70
2021/12/22 00:06:46;;;;;;;20.65;12.35;;;-0.50;99.90;;;;;;5092787;28;20052;-69
2021/12/22 00:09:11;;;;;;;23.52;13.82;;;-0.50;99.90;;;;;;5093216;28;20476;-70
2021/12/22 00:11:37;;;;;;;18.38;12.57;;;-0.50;99.90;;;;;;5091697;28;20050;-70
2021/12/22 00:14:03;;;;;;;25.30;14.75;;;-0.60;99.90;;;;;;5093263;28;20036;-70
2021/12/22 00:16:28;;;;;;;21.35;12.98;;;-0.60;99.90;;;;;;5091490;28;20135;-70
2021/12/22 00:18:54;;;;;;;19.35;13.77;;;-0.60;99.90;;;;;;5093138;28;20039;-70
2021/12/22 00:21:20;;;;;;;22.35;13.35;;;-0.60;99.90;;;;;;5091890;28;20507;-70
2021/12/22 00:23:46;;;;;;;22.38;14.25;;;-0.60;99.90;;;;;;5091833;28;20044;-70
2021/12/22 00:26:13;;;;;;;19.77;13.43;;;-0.60;99.90;;;;;;5092735;28;20083;-70
2021/12/22 00:28:40;;;;;;;17.77;12.90;;;-0.60;99.90;;;;;;5092794;28;20514;-70
2021/12/22 00:31:11;;;;;;;19.40;12.23;;;-0.60;99.90;;;;;;5091834;28;20122;-70
2021/12/22 00:33:45;;;;;;;22.95;13.95;;;-0.60;99.90;;;;;;5091417;28;20548;-70
2021/12/22 00:36:11;;;;;;;21.27;13.45;;;-0.60;99.90;;;;;;5092807;28;20047;-70
2021/12/22 00:38:37;;;;;;;21.77;13.27;;;-0.60;99.90;;;;;;5092554;28;20039;-70
2021/12/22 00:41:02;;;;;;;21.83;12.98;;;-0.60;99.90;;;;;;5095652;28;20407;-70
2021/12/22 00:43:28;;;;;;;21.92;13.27;;;-0.60;99.90;;;;;;5096607;28;20044;-69
2021/12/22 00:45:56;;;;;;;23.38;13.85;;;-0.70;99.90;;;;;;5096253;28;20032;-69
2021/12/22 00:48:22;;;;;;;18.75;12.07;;;-0.60;99.90;;;;;;5078311;28;20484;-70
2021/12/22 00:50:48;;;;;;;19.42;13.05;;;-0.70;99.90;;;;;;5096315;28;20040;-70
2021/12/22 00:53:13;;;;;;;19.27;12.52;;;-0.70;99.90;;;;;;5096103;28;20586;-70
2021/12/22 00:55:39;;;;;;;24.52;13.57;;;-0.70;99.90;;;;;;5094554;28;20044;-69
2021/12/22 00:58:05;;;;;;;20.17;13.45;;;-0.70;99.90;;;;;;5096365;28;20042;-69
2021/12/22 01:00:32;;;;;;;21.08;13.15;;;-0.70;99.90;;;;;;5096054;28;20036;-68
2021/12/22 01:02:58;;;;;;;20.42;12.30;;;-0.70;99.90;;;;;;5094863;28;20555;-68
2021/12/22 01:05:24;;;;;;;19.33;12.98;;;-0.70;99.90;;;;;;5095962;28;20119;-69
2021/12/22 01:07:51;;;;;;;20.35;13.40;;;-0.70;99.90;;;;;;5094399;28;20040;-68
2021/12/22 01:10:26;;;;;;;20.67;12.50;;;-0.80;99.90;;;;;;5095903;28;20156;-69
2021/12/22 01:12:55;;;;;;;22.30;12.68;;;-0.70;99.90;;;;;;5095081;28;20048;-69
2021/12/22 01:15:21;;;;;;;21.00;13.32;;;-0.80;99.90;;;;;;5096518;28;20076;-69
2021/12/22 01:17:50;;;;;;;21.45;13.20;;;-0.80;99.90;;;;;;5095916;28;20052;-69
2021/12/22 01:20:52;;;;;;;22.83;13.10;;;-0.80;99.90;;;;;;5094696;28;20036;-68
2021/12/22 01:23:08;;;;;;;18.95;12.48;;;-0.80;99.90;;;;;;5093061;28;20052;-69
2021/12/22 01:25:41;;;;;;;18.77;12.48;;;-0.80;99.90;;;;;;5094609;28;20501;-68
2021/12/22 01:28:07;;;;;;;21.83;12.05;;;-0.80;99.90;;;;;;5095514;28;20055;-68
2021/12/22 01:30:35;;;;;;;23.73;14.48;;;-0.90;99.90;;;;;;5095524;28;20044;-68
2021/12/22 01:33:03;;;;;;;18.85;13.38;;;-0.80;99.90;;;;;;5094663;28;20051;-69
2021/12/22 01:35:32;;;;;;;20.98;13.05;;;-0.80;99.90;;;;;;5095503;28;20051;-69
2021/12/22 01:37:58;;;;;;;21.88;13.82;;;-0.80;99.90;;;;;;5095143;28;20051;-69
2021/12/22 01:40:24;;;;;;;20.77;14.52;;;-0.90;99.90;;;;;;5095355;28;20484;-69
2021/12/22 01:42:51;;;;;;;20.02;13.50;;;-0.90;99.90;;;;;;5095174;28;20480;-69
2021/12/22 01:51:06;;;;;;;23.48;13.73;;;-0.90;99.90;;;;;;5115023;28;20040;-69
2021/12/22 01:53:45;;;;;;;21.33;12.82;;;-0.90;99.90;;;;;;5114109;28;20077;-69
2021/12/22 01:58:44;;;;;;;22.48;14.43;;;-0.90;99.90;;;;;;5115377;28;20055;-69
2021/12/22 02:01:11;;;;;;;23.70;13.80;;;-0.90;99.90;;;;;;5115596;28;20035;-69
2021/12/22 02:03:40;;;;;;;21.92;12.35;;;-1.00;99.90;;;;;;5115337;28;20048;-69
2021/12/22 02:06:06;;;;;;;21.95;14.20;;;-0.90;99.90;;;;;;5114000;28;20373;-68
2021/12/22 02:08:33;;;;;;;24.98;14.27;;;-0.90;99.90;;;;;;5113834;28;20549;-69
2021/12/22 02:10:59;;;;;;;26.42;13.57;;;-0.90;99.90;;;;;;5115034;28;20093;-69
2021/12/22 02:13:30;;;;;;;25.40;14.25;;;-0.90;99.90;;;;;;5115311;28;20035;-69
2021/12/22 02:16:04;;;;;;;23.52;14.10;;;-1.00;99.90;;;;;;5115151;28;20180;-68
2021/12/22 02:18:31;;;;;;;23.80;13.55;;;-0.90;99.90;;;;;;5114916;28;20495;-68
2021/12/22 02:20:57;;;;;;;23.10;13.70;;;-1.00;99.90;;;;;;5113841;28;20051;-68
2021/12/22 02:23:23;;;;;;;26.17;14.27;;;-1.00;99.90;;;;;;5113622;28;20035;-68
2021/12/22 02:25:53;;;;;;;27.15;13.52;;;-1.00;99.90;;;;;;5114620;28;20584;-68
2021/12/22 02:28:26;;;;;;;26.65;14.32;;;-1.00;99.90;;;;;;5114633;28;20487;-69
2021/12/22 02:30:53;;;;;;;20.80;14.68;;;-1.00;99.90;;;;;;5115194;27;20476;-69
2021/12/22 02:38:34;;;;;;;22.58;13.75;;;-1.10;99.90;;;;;;5114490;28;20040;-69
2021/12/22 02:41:00;;;;;;;22.88;13.80;;;-1.10;99.90;;;;;;5113193;28;20048;-69
2021/12/22 02:43:31;;;;;;;27.40;14.93;;;-1.10;99.90;;;;;;5114403;28;20071;-69
2021/12/22 02:45:57;;;;;;;24.40;13.85;;;-1.00;99.90;;;;;;5114330;28;20478;-69
2021/12/22 02:48:26;;;;;;;22.30;13.57;;;-1.10;99.90;;;;;;5114673;28;20077;-68
2021/12/22 02:50:54;;;;;;;25.25;13.57;;;-1.10;99.90;;;;;;5114752;28;20077;-69
2021/12/22 02:53:25;;;;;;;27.83;14.95;;;-1.10;99.90;;;;;;5114353;28;20092;-69
2021/12/22 02:55:59;;;;;;;26.65;13.70;;;-1.10;99.90;;;;;;5113968;28;20039;-68
2021/12/22 02:58:37;;;;;;;24.38;13.48;;;-1.10;99.90;;;;;;5113126;28;20051;-68
2021/12/22 03:01:12;;;;;;;22.10;13.98;;;-1.20;99.90;;;;;;5114450;28;20040;-69
2021/12/22 03:03:55;;;;;;;29.17;13.80;;;-1.20;99.90;;;;;;5114040;28;20508;-68
2021/12/22 03:06:35;;;;;;;23.85;15.77;;;-1.10;99.90;;;;;;5114151;28;20156;-68
2021/12/22 03:09:18;;;;;;;20.05;12.23;;;-1.20;99.90;;;;;;5113029;28;20097;-68
2021/12/22 03:11:44;;;;;;;24.67;12.90;;;-1.30;99.90;;;;;;5114451;28;20046;-69
2021/12/22 03:14:11;;;;;;;22.73;13.20;;;-1.30;99.90;;;;;;5114353;28;20122;-68
2021/12/22 03:16:37;;;;;;;20.02;12.00;;;-1.20;99.90;;;;;;5113608;28;20047;-69
2021/12/22 03:19:03;;;;;;;27.23;13.38;;;-1.30;99.90;;;;;;5114064;28;20039;-68
2021/12/22 03:21:29;;;;;;;22.52;12.48;;;-1.30;99.90;;;;;;5113813;28;20051;-68
2021/12/22 03:23:55;;;;;;;23.80;13.70;;;-1.30;99.90;;;;;;5112585;28;20047;-68
2021/12/22 03:26:23;;;;;;;22.05;12.43;;;-1.30;99.90;;;;;;5113579;28;20036;-68
2021/12/22 03:28:49;;;;;;;24.00;13.55;;;-1.30;99.90;;;;;;5113838;28;20057;-68
2021/12/22 03:31:15;;;;;;;25.35;14.25;;;-1.40;99.90;;;;;;5112509;28;20562;-68
2021/12/22 03:33:43;;;;;;;21.42;13.73;;;-1.40;99.90;;;;;;5113682;28;20092;-68
2021/12/22 03:36:08;;;;;;;18.80;12.23;;;-1.30;99.90;;;;;;5112161;28;20086;-68
2021/12/22 03:38:36;;;;;;;24.25;12.55;;;-1.40;99.90;;;;;;5113614;28;20070;-68
2021/12/22 03:41:03;;;;;;;20.88;13.68;;;-1.40;99.90;;;;;;5095814;28;20035;-68
2021/12/22 03:43:29;;;;;;;20.98;13.25;;;-1.50;99.90;;;;;;5113802;28;20069;-68
2021/12/22 03:45:54;;;;;;;24.30;12.07;;;-1.50;99.90;;;;;;5112328;28;20391;-68
2021/12/22 03:48:21;;;;;;;23.95;11.68;;;-1.40;99.90;;;;;;5113685;28;20082;-68
2021/12/22 03:50:47;;;;;;;21.38;11.88;;;-1.50;99.90;;;;;;5113747;28;20044;-68
2021/12/22 03:53:13;;;;;;;22.05;12.13;;;-1.60;99.90;;;;;;5095314;28;20042;-68
2021/12/22 03:55:38;;;;;;;18.40;12.15;;;-1.50;99.90;;;;;;5112082;28;20118;-68
2021/12/22 03:58:04;;;;;;;21.98;11.40;;;-1.50;99.90;;;;;;5112169;28;20119;-69
2021/12/22 04:00:31;;;;;;;21.15;12.95;;;-1.60;99.90;;;;;;5113836;28;20063;-69
2021/12/22 04:02:57;;;;;;;19.60;12.00;;;-1.60;99.90;;;;;;5112680;28;20043;-68
2021/12/22 04:05:23;;;;;;;22.30;12.52;;;-1.60;99.90;;;;;;5113782;28;20043;-68
2021/12/22 04:07:48;;;;;;;24.25;11.98;;;-1.60;99.90;;;;;;5113107;28;20399;-68
2021/12/22 04:10:20;;;;;;;21.85;11.32;;;-1.70;99.90;;;;;;5113896;28;20039;-68
2021/12/22 04:12:47;;;;;;;20.08;12.48;;;-1.70;99.90;;;;;;5113420;28;20048;-68
2021/12/22 04:15:13;;;;;;;24.30;11.98;;;-1.70;99.90;;;;;;5115470;28;20040;-68
2021/12/22 04:17:39;;;;;;;21.25;12.18;;;-1.70;99.90;;;;;;5116895;27;20028;-68
2021/12/22 04:20:05;;;;;;;17.95;11.43;;;-1.70;99.90;;;;;;5117444;28;20089;-68
2021/12/22 04:22:30;;;;;;;19.98;10.27;;;-1.70;99.90;;;;;;5115925;28;20040;-68
2021/12/22 04:24:56;;;;;;;22.63;12.27;;;-1.70;99.90;;;;;;5115826;28;20047;-68
2021/12/22 04:27:22;;;;;;;21.23;12.63;;;-1.70;99.90;;;;;;5117165;28;20034;-68
2021/12/22 04:29:47;;;;;;;19.00;10.43;;;-1.70;99.90;;;;;;5117004;28;20042;-68
2021/12/22 04:32:13;;;;;;;18.05;11.10;;;-1.70;99.90;;;;;;5116859;28;20051;-68
2021/12/22 04:34:38;;;;;;;20.13;12.50;;;-1.70;99.90;;;;;;5116994;28;20031;-68
2021/12/22 04:37:04;;;;;;;24.30;12.88;;;-1.80;99.90;;;;;;5116549;28;20538;-68
2021/12/22 04:39:32;;;;;;;21.52;11.35;;;-1.80;99.90;;;;;;5115797;28;20040;-68
2021/12/22 04:42:02;;;;;;;21.67;13.18;;;-1.80;99.90;;;;;;5116859;27;20051;-68
2021/12/22 04:44:27;;;;;;;16.70;10.90;;;-1.90;99.90;;;;;;5116668;28;20122;-68
2021/12/22 04:46:53;;;;;;;19.40;10.40;;;-1.90;99.90;;;;;;5116328;28;20075;-68
2021/12/22 04:49:18;;;;;;;19.45;12.85;;;-1.90;99.90;;;;;;5116663;28;20035;-68
2021/12/22 04:51:50;;;;;;;19.73;11.02;;;-1.90;99.90;;;;;;5115976;28;20051;-68
2021/12/22 04:54:29;;;;;;;24.08;14.25;;;-1.90;99.90;;;;;;5116836;28;20505;-68
2021/12/22 04:56:57;;;;;;;21.40;11.18;;;-1.90;99.90;;;;;;5116380;28;20039;-68
2021/12/22 04:59:23;;;;;;;22.48;12.93;;;-1.90;99.90;;;;;;5115602;28;20054;-68
2021/12/22 05:01:48;;;;;;;21.25;11.80;;;-1.90;99.90;;;;;;5115122;28;20079;-68
2021/12/22 05:04:14;;;;;;;23.13;12.60;;;-1.90;99.90;;;;;;5116577;28;20067;-68
2021/12/22 05:06:40;;;;;;;19.13;11.55;;;-1.90;99.90;;;;;;5116111;27;20031;-68
2021/12/22 05:09:07;;;;;;;20.08;11.25;;;-1.90;99.90;;;;;;5115483;28;20047;-68
2021/12/22 05:11:33;;;;;;;20.73;12.18;;;-1.90;99.90;;;;;;5116618;28;20036;-68
2021/12/22 05:14:00;;;;;;;21.15;11.45;;;-2.00;99.90;;;;;;5116686;28;20046;-68
2021/12/22 05:16:25;;;;;;;20.38;11.82;;;-1.90;99.90;;;;;;5115186;28;20092;-68
2021/12/22 05:18:56;;;;;;;21.35;11.68;;;-1.90;99.90;;;;;;5116773;28;20464;-68
2021/12/22 05:21:24;;;;;;;18.80;11.75;;;-2.00;99.90;;;;;;5116462;28;20101;-68
2021/12/22 05:23:54;;;;;;;19.48;11.82;;;-2.00;99.90;;;;;;5116302;28;20078;-68
2021/12/22 05:26:22;;;;;;;22.00;11.90;;;-2.00;99.90;;;;;;5115995;28;20047;-68
2021/12/22 05:28:48;;;;;;;22.40;12.55;;;-2.00;99.90;;;;;;5114780;28;20043;-68
2021/12/22 05:31:14;;;;;;;20.92;11.93;;;-2.00;99.90;;;;;;5115334;28;20081;-68
2021/12/22 05:33:40;;;;;;;17.67;11.70;;;-1.90;99.90;;;;;;5114905;28;20435;-69
2021/12/22 05:36:06;;;;;;;20.30;11.93;;;-2.00;99.90;;;;;;5116014;28;20039;-68
2021/12/22 05:38:32;;;;;;;23.35;13.15;;;-2.00;99.90;;;;;;5114386;28;20058;-69
2021/12/22 05:40:58;;;;;;;21.52;11.85;;;-2.00;99.90;;;;;;5115994;28;20036;-69
2021/12/22 05:43:23;;;;;;;26.50;13.35;;;-2.00;99.90;;;;;;5115766;28;20470;-69
2021/12/22 05:45:49;;;;;;;20.77;12.30;;;-2.10;99.90;;;;;;5115532;28;20092;-68
2021/12/22 05:48:15;;;;;;;20.35;12.25;;;-2.00;99.90;;;;;;5115845;28;20032;-69
2021/12/22 05:50:45;;;;;;;19.77;11.95;;;-2.10;99.90;;;;;;5116121;28;20027;-69
2021/12/22 05:53:11;;;;;;;21.60;11.88;;;-2.10;99.90;;;;;;5115694;28;20043;-69
2021/12/22 05:55:36;;;;;;;21.38;12.68;;;-2.10;99.90;;;;;;5115363;28;20039;-69
2021/12/22 05:58:02;;;;;;;27.23;12.80;;;-2.10;99.90;;;;;;5115577;28;20047;-68
2021/12/22 06:00:28;;;;;;;19.45;12.25;;;-2.10;99.90;;;;;;5115368;28;20039;-68
2021/12/22 06:02:53;;;;;;;18.85;12.73;;;-2.10;99.90;;;;;;5115115;28;20040;-68
2021/12/22 06:05:19;;;;;;;20.42;11.30;;;-2.10;99.90;;;;;;5115640;28;20035;-69
2021/12/22 06:07:46;;;;;;;22.73;13.77;;;-2.20;99.90;;;;;;5115090;28;20032;-69
2021/12/22 06:10:12;;;;;;;21.15;13.48;;;-2.10;99.90;;;;;;5113786;28;20035;-69
2021/12/22 06:12:37;;;;;;;24.02;13.00;;;-2.10;99.90;;;;;;5115157;28;20367;-69
2021/12/22 06:15:04;;;;;;;22.02;12.85;;;-2.10;99.90;;;;;;5115315;28;20036;-69
2021/12/22 06:17:29;;;;;;;21.92;13.10;;;-2.20;99.90;;;;;;5113259;28;20108;-69
2021/12/22 06:19:55;;;;;;;24.38;13.65;;;-2.20;99.90;;;;;;5115354;28;20506;-69
2021/12/22 06:22:22;;;;;;;22.70;12.48;;;-2.20;99.90;;;;;;5114698;28;20039;-69
2021/12/22 06:24:48;;;;;;;22.08;11.95;;;-2.20;99.90;;;;;;5115091;28;20039;-68
2021/12/22 06:27:13;;;;;;;21.60;12.65;;;-2.20;99.90;;;;;;5114690;28;20038;-68
2021/12/22 06:29:39;;;;;;;22.15;14.10;;;-2.20;99.90;;;;;;5114651;28;20104;-68
2021/12/22 06:32:05;;;;;;;26.42;13.27;;;-2.20;99.90;;;;;;5114991;28;20031;-68
2021/12/22 06:34:31;;;;;;;19.50;12.50;;;-2.20;99.90;;;;;;5114685;28;20039;-68
2021/12/22 06:36:56;;;;;;;21.95;12.77;;;-2.20;99.90;;;;;;5113723;28;20043;-68
2021/12/22 06:39:22;;;;;;;23.83;14.82;;;-2.20;99.90;;;;;;5114377;28;20039;-69
2021/12/22 06:41:48;;;;;;;20.38;12.52;;;-2.20;99.90;;;;;;5114643;28;20107;-69
2021/12/22 06:44:15;;;;;;;20.77;11.98;;;-2.20;99.90;;;;;;5114757;28;20503;-68
2021/12/22 06:46:42;;;;;;;22.25;12.40;;;-2.20;99.90;;;;;;5114365;28;20040;-68
2021/12/22 06:49:09;;;;;;;21.27;12.52;;;-2.20;99.90;;;;;;5114476;28;20482;-69
2021/12/22 06:51:34;;;;;;;19.63;12.75;;;-2.30;99.90;;;;;;5114362;28;20039;-68
2021/12/22 06:54:00;;;;;;;24.50;12.13;;;-2.20;99.90;;;;;;5114238;28;20042;-68
2021/12/22 06:56:25;;;;;;;21.20;11.70;;;-2.30;99.90;;;;;;5112819;28;20092;-69
2021/12/22 06:58:51;;;;;;;22.02;12.95;;;-2.30;99.90;;;;;;5113232;28;20038;-69
2021/12/22 07:01:19;;;;;;;20.00;12.85;;;-2.30;99.90;;;;;;5114147;28;20043;-69
2021/12/22 07:03:46;;;;;;;19.55;13.02;;;-2.30;99.90;;;;;;5112929;28;20047;-68
2021/12/22 07:06:11;;;;;;;20.58;12.32;;;-2.30;99.90;;;;;;5114138;28;20530;-68
2021/12/22 07:08:37;;;;;;;20.83;12.82;;;-2.30;99.90;;;;;;5114237;28;20115;-68
2021/12/22 07:11:03;;;;;;;21.10;12.38;;;-2.30;99.90;;;;;;5114424;28;20031;-68
2021/12/22 07:13:30;;;;;;;20.23;12.50;;;-2.30;99.90;;;;;;5114422;28;20031;-69
2021/12/22 07:15:56;;;;;;;22.08;13.18;;;-2.30;99.90;;;;;;5113800;28;20529;-68
2021/12/22 07:18:21;;;;;;;19.83;12.48;;;-2.30;99.90;;;;;;5113914;28;20031;-69
2021/12/22 07:20:47;;;;;;;25.85;13.48;;;-2.30;99.90;;;;;;5112848;28;20036;-69
2021/12/22 07:23:13;;;;;;;24.77;13.07;;;-2.30;99.90;;;;;;5113792;28;20491;-69
2021/12/22 07:25:38;;;;;;;20.17;12.00;;;-2.30;99.90;;;;;;5113812;28;20119;-69
2021/12/22 07:28:04;;;;;;;19.58;12.77;;;-2.40;99.90;;;;;;5114339;28;20036;-68
2021/12/22 07:30:30;;;;;;;21.90;12.52;;;-2.30;99.90;;;;;;5113882;28;20036;-68
2021/12/22 07:32:56;;;;;;;24.25;12.18;;;-2.30;99.90;;;;;;5112620;28;20059;-68
2021/12/22 07:35:32;;;;;;;21.98;12.65;;;-2.30;99.90;;;;;;5112678;28;20039;-68
2021/12/22 07:38:11;;;;;;;23.20;12.32;;;-2.30;99.90;;;;;;5111399;28;20050;-68
2021/12/22 07:40:37;;;;;;;22.67;12.32;;;-2.30;99.90;;;;;;5112684;28;20616;-68
2021/12/22 07:43:03;;;;;;;24.33;13.52;;;-2.40;99.90;;;;;;5112423;28;20118;-68
2021/12/22 07:45:29;;;;;;;21.45;12.40;;;-2.30;99.90;;;;;;5113734;28;20530;-68
2021/12/22 07:47:54;;;;;;;22.15;13.52;;;-2.40;99.90;;;;;;5113539;28;20110;-69
2021/12/22 07:50:20;;;;;;;26.58;13.13;;;-2.30;99.90;;;;;;5114466;28;20044;-68
2021/12/22 07:52:45;;;;;;;25.05;14.65;;;-2.30;99.90;;;;;;5116530;28;20100;-68
2021/12/22 07:55:11;;;;;;;28.42;14.18;;;-2.30;99.90;;;;;;5114874;27;20035;-68
2021/12/22 07:57:37;;;;;;;30.35;14.18;;;-2.30;99.90;;;;;;5107653;28;20039;-68
2021/12/22 08:00:05;;;;;;;29.90;15.15;;;-2.20;99.90;;;;;;5106367;28;20031;-68
2021/12/22 08:02:31;;;;;;;25.80;14.80;;;-2.30;99.90;;;;;;5103938;28;20048;-68
2021/12/22 08:04:57;;;;;;;30.10;13.40;;;-2.30;99.90;;;;;;5107864;28;20039;-68
2021/12/22 08:07:22;;;;;;;26.85;15.10;;;-2.20;99.90;;;;;;5115353;28;20027;-69
2021/12/22 08:09:48;;;;;;;26.70;13.75;;;-2.20;99.90;;;;;;5117463;28;20534;-69
2021/12/22 08:12:13;;;;;;;24.52;13.48;;;-2.20;99.90;;;;;;5117730;28;20040;-69
2021/12/22 08:14:39;;;;;;;23.65;13.77;;;-2.20;99.90;;;;;;5117362;27;20042;-69
2021/12/22 08:17:07;;;;;;;19.13;11.98;;;-2.20;99.90;;;;;;5115998;28;20100;-68
2021/12/22 08:19:32;;;;;;;23.45;13.30;;;-2.20;99.90;;;;;;5117648;28;20087;-68
2021/12/22 08:22:00;;;;;;;26.08;13.07;;;-2.20;99.90;;;;;;5116038;28;20118;-68
2021/12/22 08:24:25;;;;;;;23.88;13.38;;;-2.20;99.90;;;;;;5117712;28;20042;-69
2021/12/22 08:26:51;;;;;;;23.98;13.30;;;-2.20;99.90;;;;;;5116913;28;20039;-68
2021/12/22 08:29:18;;;;;;;29.25;13.18;;;-2.10;99.90;;;;;;5117499;28;20525;-68
2021/12/22 08:31:43;;;;;;;24.98;12.32;;;-2.10;99.90;;;;;;5117153;28;20038;-68
2021/12/22 08:34:10;;;;;;;22.35;12.43;;;-2.10;99.90;;;;;;5117223;28;20039;-70
2021/12/22 08:39:23;;;;;;;22.65;12.93;;;-2.00;99.90;;;;;;5117545;27;20047;-69
2021/12/22 08:41:49;;;;;;;28.67;14.43;;;-2.00;99.90;;;;;;5116811;28;20159;-69
2021/12/22 08:44:18;;;;;;;23.52;13.70;;;-1.90;99.90;;;;;;5114840;28;20038;-68
2021/12/22 08:46:48;;;;;;;22.90;14.73;;;-1.90;99.90;;;;;;5114754;28;20043;-68
2021/12/22 08:49:14;;;;;;;21.70;13.27;;;-1.80;99.90;;;;;;5116886;28;20034;-69
2021/12/22 08:51:40;;;;;;;29.90;14.70;;;-1.80;99.90;;;;;;5115434;28;20471;-68
2021/12/22 08:54:06;;;;;;;25.85;13.73;;;-1.70;99.90;;;;;;5116969;28;20087;-69
2021/12/22 08:56:32;;;;;;;27.83;15.95;;;-1.60;99.90;;;;;;5116251;28;20035;-68
2021/12/22 08:58:58;;;;;;;25.60;15.82;;;-1.70;99.90;;;;;;5116438;28;20415;-69
2021/12/22 09:01:25;;;;;;;27.85;15.55;;;-1.60;99.90;;;;;;5116300;28;20119;-69
2021/12/22 09:03:52;;;;;;;29.05;16.33;;;-1.60;99.90;;;;;;5111789;28;20040;-69
2021/12/22 09:06:17;;;;;;;27.48;15.88;;;-1.50;99.90;;;;;;5105401;28;20036;-69
2021/12/22 09:08:44;;;;;;;28.65;16.17;;;-1.60;99.90;;;;;;5106813;28;20106;-69
2021/12/22 09:11:10;;;;;;;26.75;16.58;;;-1.50;99.90;;;;;;5103065;28;20067;-71
2021/12/22 09:13:37;;;;;;;26.65;15.38;;;-1.40;99.90;;;;;;5114172;28;21198;-70
2021/12/22 09:16:04;;;;;;;26.98;15.02;;;-1.40;99.90;;;;;;5086496;28;20036;-69
2021/12/22 09:18:30;;;;;;;27.08;15.75;;;-1.40;99.90;;;;;;5113237;28;20104;-68
2021/12/22 09:20:56;;;;;;;26.02;15.55;;;-1.40;99.90;;;;;;5116371;28;20043;-69
2021/12/22 09:23:21;;;;;;;29.27;15.43;;;-1.40;99.90;;;;;;5115873;28;20512;-69
2021/12/22 09:25:47;;;;;;;30.67;16.80;;;-1.30;99.90;;;;;;5116316;28;20035;-68
2021/12/22 09:28:13;;;;;;;32.33;16.60;;;-1.30;99.90;;;;;;5115946;28;20036;-69
2021/12/22 09:30:43;;;;;;;33.22;17.13;;;-1.30;99.90;;;;;;5116177;27;20031;-69
2021/12/22 09:33:11;;;;;;;24.98;15.05;;;-1.40;99.90;;;;;;5116480;28;20031;-69
2021/12/22 09:35:38;;;;;;;28.35;15.38;;;-1.30;99.90;;;;;;5116015;28;20099;-68
2021/12/22 09:38:05;;;;;;;22.83;14.60;;;-1.30;99.90;;;;;;5115701;28;20491;-69
2021/12/22 09:40:30;;;;;;;28.52;16.23;;;-1.30;99.90;;;;;;5115749;28;20055;-69
2021/12/22 09:42:56;;;;;;;27.15;15.25;;;-1.20;99.90;;;;;;5115957;28;20402;-68
2021/12/22 09:45:24;;;;;;;29.38;16.20;;;-1.10;99.90;;;;;;5116179;28;20345;-68
2021/12/22 09:50:53;;;;;;;28.45;15.27;;;-1.10;99.90;;;;;;5111982;28;20503;-68
2021/12/22 09:53:22;;;;;;;25.85;15.05;;;-1.10;99.90;;;;;;5116377;28;20176;-69
2021/12/22 09:55:49;;;;;;;27.67;15.32;;;-1.00;99.90;;;;;;5112647;28;20035;-69
2021/12/22 09:58:15;;;;;;;26.73;16.13;;;-0.90;99.90;;;;;;5115507;28;20507;-69
2021/12/22 10:00:42;;;;;;;28.60;15.65;;;-0.80;99.90;;;;;;5115852;27;20580;-69
2021/12/22 10:03:10;;;;;;;31.38;17.23;;;-0.90;99.90;;;;;;5115504;28;20488;-69
2021/12/22 10:05:36;;;;;;;30.05;16.05;;;-0.90;99.90;;;;;;5114794;28;20040;-68
2021/12/22 10:08:15;;;;;;;25.52;15.75;;;-0.80;99.90;;;;;;5110361;28;20045;-69
2021/12/22 10:10:47;;;;;;;25.45;15.98;;;-0.80;99.90;;;;;;5100096;28;20115;-69
2021/12/22 10:13:16;;;;;;;24.25;14.77;;;-0.80;99.90;;;;;;5093911;28;20040;-69
2021/12/22 10:15:42;;;;;;;25.08;15.32;;;-0.80;99.90;;;;;;5094300;28;20079;-68
2021/12/22 10:18:08;;;;;;;28.13;16.55;;;-0.80;99.90;;;;;;5104416;28;20035;-68
2021/12/22 10:20:34;;;;;;;28.60;14.48;;;-0.70;99.90;;;;;;5076383;28;20387;-68
2021/12/22 10:22:59;;;;;;;32.53;16.13;;;-0.60;99.90;;;;;;5094811;28;20043;-68
2021/12/22 10:25:28;;;;;;;30.67;15.27;;;-0.60;99.90;;;;;;5097031;28;20081;-68
2021/12/22 10:28:04;;;;;;;29.98;15.05;;;-0.60;99.90;;;;;;5099530;28;20551;-68
2021/12/22 10:30:55;;;;;;;27.05;16.17;;;-0.50;99.90;;;;;;5077041;28;20048;-69
2021/12/22 10:33:26;;;;;;;28.40;15.38;;;-0.40;99.90;;;;;;5094384;28;20399;-69
2021/12/22 10:35:59;;;;;;;24.50;14.48;;;-0.40;99.90;;;;;;5092603;28;20044;-69
2021/12/22 10:38:27;;;;;;;25.10;14.68;;;-0.30;99.90;;;;;;5092913;28;20131;-69
2021/12/22 10:40:56;;;;;;;27.95;15.88;;;-0.30;99.90;;;;;;5093792;28;20067;-69
2021/12/22 10:43:26;;;;;;;26.65;15.93;;;-0.30;99.90;;;;;;5094020;28;20051;-69
2021/12/22 10:45:56;;;;;;;25.52;15.68;;;-0.30;99.90;;;;;;5093108;28;20043;-69
2021/12/22 10:51:23;;;;;;;30.40;15.23;;;-0.20;99.90;;;;;;5097859;28;20437;-70
2021/12/22 10:53:50;;;;;;;26.95;16.05;;;-0.10;99.90;;;;;;5102508;28;20046;-69
2021/12/22 10:56:34;;;;;;;27.17;16.15;;;-0.10;99.90;;;;;;5113270;27;20040;-68
2021/12/22 10:59:21;;;;;;;28.60;16.90;;;-0.10;99.90;;;;;;5101500;28;20032;-69
2021/12/22 11:01:49;;;;;;;23.42;15.00;;;0.00;99.90;;;;;;5100877;28;20561;-68
2021/12/22 11:04:24;;;;;;;28.15;16.00;;;0.00;99.90;;;;;;5093572;28;20499;-69
2021/12/22 11:06:52;;;;;;;30.00;15.95;;;0.00;99.90;;;;;;5111758;28;20035;-70
2021/12/22 11:09:19;;;;;;;24.20;16.25;;;0.00;99.90;;;;;;5113762;28;20122;-69
2021/12/22 11:11:50;;;;;;;25.80;15.80;;;0.00;99.90;;;;;;5114076;28;20494;-72
2021/12/22 11:14:19;;;;;;;30.17;16.48;;;0.10;99.90;;;;;;5112839;28;20039;-69
2021/12/22 11:17:04;;;;;;;26.17;15.32;;;0.10;99.90;;;;;;5095219;28;20490;-69
2021/12/22 11:19:52;;;;;;;26.67;15.32;;;0.10;99.90;;;;;;5095598;28;20044;-69
2021/12/22 11:22:19;;;;;;;24.63;14.35;;;0.20;99.90;;;;;;5101456;28;20089;-70
2021/12/22 11:24:50;;;;;;;26.23;14.57;;;0.20;99.90;;;;;;5099835;28;20040;-69
2021/12/22 11:27:19;;;;;;;25.70;15.10;;;0.20;99.90;;;;;;5101709;28;20073;-70
2021/12/22 11:29:48;;;;;;;24.60;14.45;;;0.20;99.90;;;;;;5096692;28;20507;-70
2021/12/22 11:32:15;;;;;;;24.08;13.70;;;0.20;99.90;;;;;;5094703;28;20036;-70
2021/12/22 11:34:49;;;;;;;23.27;12.88;;;0.30;99.90;;;;;;5100113;28;20051;-69
2021/12/22 11:37:15;;;;;;;28.27;15.48;;;0.40;99.90;;;;;;5112841;28;20045;-69
2021/12/22 11:39:41;;;;;;;24.17;13.65;;;0.30;99.90;;;;;;5113136;28;20403;-69
2021/12/22 11:42:09;;;;;;;20.45;13.68;;;0.30;99.90;;;;;;5106490;28;20036;-69
2021/12/22 11:44:38;;;;;;;21.48;13.73;;;0.40;99.90;;;;;;5109034;28;20032;-69
2021/12/22 11:47:07;;;;;;;19.65;12.63;;;0.40;99.90;;;;;;5095550;28;20044;-69
2021/12/22 11:49:34;;;;;;;20.48;13.43;;;0.40;99.90;;;;;;5111585;28;20527;-69
2021/12/22 11:52:02;;;;;;;25.13;14.45;;;0.50;99.90;;;;;;5098960;28;20098;-70
2021/12/22 11:54:28;;;;;;;22.35;14.10;;;0.50;99.90;;;;;;5113019;28;20602;-69
2021/12/22 11:56:58;;;;;;;21.70;13.52;;;0.50;99.90;;;;;;5112732;28;20373;-70
2021/12/22 11:59:30;;;;;;;20.90;12.43;;;0.50;99.90;;;;;;5099127;28;20039;-69
2021/12/22 12:02:20;;;;;;;19.50;12.82;;;0.60;99.90;;;;;;5113072;28;20111;-70
2021/12/22 12:04:48;;;;;;;19.77;12.48;;;0.60;99.90;;;;;;5112272;28;20043;-70
2021/12/22 12:07:44;;;;;;;21.75;12.52;;;0.60;99.90;;;;;;5112797;28;20445;-69
2021/12/22 12:10:40;;;;;;;18.60;11.35;;;0.60;99.90;;;;;;5113175;28;20067;-69
2021/12/22 12:13:38;;;;;;;20.67;12.02;;;0.60;99.90;;;;;;5112977;28;20070;-69
2021/12/22 12:22:19;;;;;;;20.05;11.07;;;0.60;99.90;;;;;;5100067;28;20052;-69
2021/12/22 12:24:49;;;;;;;20.10;11.70;;;0.60;99.90;;;;;;5098167;28;20043;-69
2021/12/22 12:27:40;;;;;;;18.15;12.23;;;0.60;99.90;;;;;;5111594;28;20140;-69
2021/12/22 12:30:07;;;;;;;25.73;13.98;;;0.60;99.90;;;;;;5106950;28;20036;-69
2021/12/22 12:32:39;;;;;;;24.17;15.48;;;0.60;99.90;;;;;;5099681;28;20047;-70
2021/12/22 12:35:23;;;;;;;23.83;14.15;;;0.60;99.90;;;;;;5100040;28;20425;-69
2021/12/22 12:38:04;;;;;;;;;;;0.60;99.90;;;;;;5115230;28;20439;-69
2021/12/22 12:40:54;;;;;;;22.52;13.32;;;0.60;99.90;;;;;;5107213;28;20303;-69
2021/12/22 12:43:38;;;;;;;17.85;12.30;;;0.60;99.90;;;;;;5096074;28;20048;-69
2021/12/22 12:46:04;;;;;;;21.23;11.63;;;0.60;99.90;;;;;;5096042;28;20122;-69
2021/12/22 12:48:30;;;;;;;23.30;13.90;;;0.70;99.90;;;;;;5094681;28;20132;-69
2021/12/22 12:51:18;;;;;;;23.17;13.05;;;0.70;99.90;;;;;;5095072;28;20036;-69
2021/12/22 12:53:47;;;;;;;20.30;13.10;;;0.70;99.90;;;;;;5096126;28;20040;-69
2021/12/22 12:56:14;;;;;;;20.50;12.77;;;0.70;99.90;;;;;;5095581;28;20036;-69
2021/12/22 12:58:54;;;;;;;18.48;12.57;;;0.70;99.90;;;;;;5095810;28;20100;-69
2021/12/22 13:01:45;;;;;;;18.63;12.25;;;0.70;99.90;;;;;;5094600;28;20054;-69
2021/12/22 13:04:24;;;;;;;20.67;12.50;;;0.70;99.90;;;;;;5095693;28;20051;-69